sensor_id;sensor_type;location;lat;lon;timestamp;pressure;altitude;pressure_sealevel;temperature;humidity
67013;BME280;53926;47.406;19.188;2022-10-16T00:01:11;100820.75;;;13.42;94.41
67013;BME280;53926;47.406;19.188;2022-10-16T00:03:39;100806.87;;;13.41;94.13
67013;BME280;53926;47.406;19.188;2022-10-16T00:06:08;100817.34;;;13.41;95.53
67013;BME280;53926;47.406;19.188;2022-10-16T00:08:36;100818.84;;;13.24;93.95
67013;BME280;53926;47.406;19.188;2022-10-16T00:11:09;100819.22;;;13.28;94.72
67013;BME280;53926;47.406;19.188;2022-10-16T00:13:37;100815.00;;;13.27;95.09
67013;BME280;53926;47.406;19.188;2022-10-16T00:16:04;100823.69;;;13.20;95.53
67013;BME280;53926;47.406;19.188;2022-10-16T00:18:31;100823.06;;;13.25;96.51
67013;BME280;53926;47.406;19.188;2022-10-16T00:21:12;100831.75;;;13.19;97.34
67013;BME280;53926;47.406;19.188;2022-10-16T00:23:39;100823.31;;;13.17;94.10
67013;BME280;53926;47.406;19.188;2022-10-16T00:26:08;100818.28;;;13.15;94.02
67013;BME280;53926;47.406;19.188;2022-10-16T00:28:35;100816.47;;;13.16;95.33
67013;BME280;53926;47.406;19.188;2022-10-16T00:31:05;100826.53;;;13.19;96.02
67013;BME280;53926;47.406;19.188;2022-10-16T00:33:32;100819.87;;;13.16;93.60
67013;BME280;53926;47.406;19.188;2022-10-16T00:36:00;100828.38;;;13.12;94.17
67013;BME280;53926;47.406;19.188;2022-10-16T00:38:27;100830.41;;;13.10;95.28
67013;BME280;53926;47.406;19.188;2022-10-16T00:40:53;100820.37;;;13.00;94.78
67013;BME280;53926;47.406;19.188;2022-10-16T00:43:46;100827.22;;;13.01;95.51
67013;BME280;53926;47.406;19.188;2022-10-16T00:46:29;100835.03;;;13.07;93.84
67013;BME280;53926;47.406;19.188;2022-10-16T00:51:35;100833.09;;;12.96;94.52
67013;BME280;53926;47.406;19.188;2022-10-16T00:54:04;100850.59;;;12.96;94.28
67013;BME280;53926;47.406;19.188;2022-10-16T00:56:33;100836.91;;;12.94;95.89
67013;BME280;53926;47.406;19.188;2022-10-16T00:59:03;100843.19;;;12.86;96.42
67013;BME280;53926;47.406;19.188;2022-10-16T01:01:32;100847.25;;;12.82;97.06
67013;BME280;53926;47.406;19.188;2022-10-16T01:03:59;100835.38;;;12.79;97.45
67013;BME280;53926;47.406;19.188;2022-10-16T01:11:41;100850.94;;;12.61;97.59
67013;BME280;53926;47.406;19.188;2022-10-16T01:17:04;100858.06;;;12.33;98.78
67013;BME280;53926;47.406;19.188;2022-10-16T01:20:03;100862.31;;;12.21;99.32
67013;BME280;53926;47.406;19.188;2022-10-16T01:22:54;100859.34;;;12.11;99.59
67013;BME280;53926;47.406;19.188;2022-10-16T01:28:05;100868.56;;;11.67;100.00
67013;BME280;53926;47.406;19.188;2022-10-16T01:30:36;100863.75;;;11.57;100.00
67013;BME280;53926;47.406;19.188;2022-10-16T01:33:26;100865.94;;;11.40;100.00
67013;BME280;53926;47.406;19.188;2022-10-16T01:35:59;100864.69;;;11.22;100.00
67013;BME280;53926;47.406;19.188;2022-10-16T01:38:35;100871.06;;;11.00;100.00
67013;BME280;53926;47.406;19.188;2022-10-16T01:41:08;100868.16;;;10.74;100.00
67013;BME280;53926;47.406;19.188;2022-10-16T01:43:46;100870.72;;;10.68;100.00
67013;BME280;53926;47.406;19.188;2022-10-16T01:46:17;100871.28;;;10.57;100.00
67013;BME280;53926;47.406;19.188;2022-10-16T01:48:45;100865.56;;;10.40;100.00
67013;BME280;53926;47.406;19.188;2022-10-16T01:51:13;100870.13;;;10.31;100.00
67013;BME280;53926;47.406;19.188;2022-10-16T01:53:43;100873.47;;;10.25;100.00
67013;BME280;53926;47.406;19.188;2022-10-16T01:56:13;100870.00;;;10.11;100.00
67013;BME280;53926;47.406;19.188;2022-10-16T01:58:53;100868.53;;;10.01;100.00
67013;BME280;53926;47.406;19.188;2022-10-16T02:01:23;100881.47;;;9.95;100.00
67013;BME280;53926;47.406;19.188;2022-10-16T02:03:53;100881.59;;;9.87;100.00
67013;BME280;53926;47.406;19.188;2022-10-16T02:06:22;100896.12;;;9.74;100.00
67013;BME280;53926;47.406;19.188;2022-10-16T02:08:49;100886.47;;;9.68;100.00
67013;BME280;53926;47.406;19.188;2022-10-16T02:11:16;100888.56;;;9.58;100.00
67013;BME280;53926;47.406;19.188;2022-10-16T02:13:54;100886.47;;;9.46;100.00
67013;BME280;53926;47.406;19.188;2022-10-16T02:16:32;100893.66;;;9.44;100.00
67013;BME280;53926;47.406;19.188;2022-10-16T02:18:59;100893.69;;;9.29;100.00
67013;BME280;53926;47.406;19.188;2022-10-16T02:21:29;100895.78;;;9.19;100.00
67013;BME280;53926;47.406;19.188;2022-10-16T02:24:10;100901.97;;;9.18;100.00
67013;BME280;53926;47.406;19.188;2022-10-16T02:26:52;100910.22;;;9.07;100.00
67013;BME280;53926;47.406;19.188;2022-10-16T02:29:23;100907.56;;;9.00;100.00
67013;BME280;53926;47.406;19.188;2022-10-16T02:31:56;100901.09;;;8.96;100.00
67013;BME280;53926;47.406;19.188;2022-10-16T02:34:25;100897.91;;;8.94;100.00
67013;BME280;53926;47.406;19.188;2022-10-16T02:36:54;100906.66;;;8.93;100.00
67013;BME280;53926;47.406;19.188;2022-10-16T02:39:22;100904.00;;;8.86;100.00
67013;BME280;53926;47.406;19.188;2022-10-16T02:41:49;100907.13;;;8.82;100.00
67013;BME280;53926;47.406;19.188;2022-10-16T02:44:16;100913.94;;;8.83;100.00
67013;BME280;53926;47.406;19.188;2022-10-16T02:46:42;100911.59;;;8.73;100.00
67013;BME280;53926;47.406;19.188;2022-10-16T02:49:09;100917.69;;;8.65;100.00
67013;BME280;53926;47.406;19.188;2022-10-16T02:51:35;100906.94;;;8.68;100.00
67013;BME280;53926;47.406;19.188;2022-10-16T02:54:02;100901.87;;;8.60;100.00
67013;BME280;53926;47.406;19.188;2022-10-16T02:56:29;100893.28;;;8.59;100.00
67013;BME280;53926;47.406;19.188;2022-10-16T02:58:57;100905.97;;;8.54;100.00
67013;BME280;53926;47.406;19.188;2022-10-16T03:01:24;100906.88;;;8.62;100.00
67013;BME280;53926;47.406;19.188;2022-10-16T03:03:50;100909.47;;;8.62;100.00
67013;BME280;53926;47.406;19.188;2022-10-16T03:06:17;100915.28;;;8.64;100.00
67013;BME280;53926;47.406;19.188;2022-10-16T03:08:43;100912.88;;;8.62;100.00
67013;BME280;53926;47.406;19.188;2022-10-16T03:11:10;100905.25;;;8.61;100.00
67013;BME280;53926;47.406;19.188;2022-10-16T03:13:37;100907.41;;;8.57;100.00
67013;BME280;53926;47.406;19.188;2022-10-16T03:16:03;100917.44;;;8.60;100.00
67013;BME280;53926;47.406;19.188;2022-10-16T03:18:30;100927.19;;;8.58;100.00
67013;BME280;53926;47.406;19.188;2022-10-16T03:20:56;100921.19;;;8.57;100.00
67013;BME280;53926;47.406;19.188;2022-10-16T03:23:23;100923.88;;;8.49;100.00
67013;BME280;53926;47.406;19.188;2022-10-16T03:25:50;100927.28;;;8.50;100.00
67013;BME280;53926;47.406;19.188;2022-10-16T03:28:17;100931.91;;;8.39;100.00
67013;BME280;53926;47.406;19.188;2022-10-16T03:30:43;100931.53;;;8.28;100.00
67013;BME280;53926;47.406;19.188;2022-10-16T03:33:10;100927.59;;;8.32;100.00
67013;BME280;53926;47.406;19.188;2022-10-16T03:35:37;100933.03;;;8.22;100.00
67013;BME280;53926;47.406;19.188;2022-10-16T03:38:04;100940.34;;;8.18;100.00
67013;BME280;53926;47.406;19.188;2022-10-16T03:40:30;100946.94;;;8.06;100.00
67013;BME280;53926;47.406;19.188;2022-10-16T03:42:58;100945.84;;;8.00;100.00
67013;BME280;53926;47.406;19.188;2022-10-16T03:45:25;100941.84;;;7.98;100.00
67013;BME280;53926;47.406;19.188;2022-10-16T03:47:53;100944.59;;;7.96;100.00
67013;BME280;53926;47.406;19.188;2022-10-16T03:50:20;100946.38;;;7.96;100.00
67013;BME280;53926;47.406;19.188;2022-10-16T03:52:46;100949.31;;;7.93;100.00
67013;BME280;53926;47.406;19.188;2022-10-16T03:55:13;100955.19;;;7.86;100.00
67013;BME280;53926;47.406;19.188;2022-10-16T03:57:39;100946.44;;;7.87;100.00
67013;BME280;53926;47.406;19.188;2022-10-16T04:00:06;100955.97;;;7.87;100.00
67013;BME280;53926;47.406;19.188;2022-10-16T04:02:33;100960.53;;;7.85;100.00
67013;BME280;53926;47.406;19.188;2022-10-16T04:04:59;100963.31;;;7.83;100.00
67013;BME280;53926;47.406;19.188;2022-10-16T04:07:26;100964.62;;;7.79;100.00
67013;BME280;53926;47.406;19.188;2022-10-16T04:09:53;100964.78;;;7.78;100.00
67013;BME280;53926;47.406;19.188;2022-10-16T04:12:20;100962.69;;;7.81;100.00
67013;BME280;53926;47.406;19.188;2022-10-16T04:14:46;100956.56;;;7.74;100.00
67013;BME280;53926;47.406;19.188;2022-10-16T04:17:13;100959.34;;;7.73;100.00
67013;BME280;53926;47.406;19.188;2022-10-16T04:19:40;100962.09;;;7.71;100.00
67013;BME280;53926;47.406;19.188;2022-10-16T04:22:06;100964.97;;;7.76;100.00
67013;BME280;53926;47.406;19.188;2022-10-16T04:24:33;100967.91;;;7.73;100.00
67013;BME280;53926;47.406;19.188;2022-10-16T04:26:59;100971.31;;;7.74;100.00
67013;BME280;53926;47.406;19.188;2022-10-16T04:29:26;100967.97;;;7.65;100.00
67013;BME280;53926;47.406;19.188;2022-10-16T04:31:52;100961.63;;;7.67;100.00
67013;BME280;53926;47.406;19.188;2022-10-16T04:34:19;100962.44;;;7.68;100.00
67013;BME280;53926;47.406;19.188;2022-10-16T04:36:48;100960.72;;;7.60;100.00
67013;BME280;53926;47.406;19.188;2022-10-16T04:39:18;100962.84;;;7.57;100.00
67013;BME280;53926;47.406;19.188;2022-10-16T04:41:44;100957.50;;;7.58;100.00
67013;BME280;53926;47.406;19.188;2022-10-16T04:44:11;100958.03;;;7.45;100.00
67013;BME280;53926;47.406;19.188;2022-10-16T04:46:37;100955.25;;;7.47;100.00
67013;BME280;53926;47.406;19.188;2022-10-16T04:49:04;100968.28;;;7.39;100.00
67013;BME280;53926;47.406;19.188;2022-10-16T04:51:31;100969.28;;;7.29;100.00
67013;BME280;53926;47.406;19.188;2022-10-16T04:53:57;100975.41;;;7.37;100.00
67013;BME280;53926;47.406;19.188;2022-10-16T04:56:24;100985.28;;;7.33;100.00
67013;BME280;53926;47.406;19.188;2022-10-16T04:58:50;100982.69;;;7.33;100.00
67013;BME280;53926;47.406;19.188;2022-10-16T05:01:17;100985.47;;;7.31;100.00
67013;BME280;53926;47.406;19.188;2022-10-16T05:03:43;100988.25;;;7.22;100.00
67013;BME280;53926;47.406;19.188;2022-10-16T05:06:10;100991.66;;;7.22;100.00
67013;BME280;53926;47.406;19.188;2022-10-16T05:08:37;100994.91;;;7.16;100.00
67013;BME280;53926;47.406;19.188;2022-10-16T05:11:03;101001.22;;;7.22;100.00
67013;BME280;53926;47.406;19.188;2022-10-16T05:13:30;101006.72;;;7.19;100.00
67013;BME280;53926;47.406;19.188;2022-10-16T05:15:56;101011.75;;;7.20;100.00
67013;BME280;53926;47.406;19.188;2022-10-16T05:18:23;101006.22;;;7.23;100.00
67013;BME280;53926;47.406;19.188;2022-10-16T05:20:50;101001.69;;;7.25;100.00
67013;BME280;53926;47.406;19.188;2022-10-16T05:23:16;100999.75;;;7.27;100.00
67013;BME280;53926;47.406;19.188;2022-10-16T05:25:43;101000.53;;;7.28;100.00
67013;BME280;53926;47.406;19.188;2022-10-16T05:28:09;101001.00;;;7.31;100.00
67013;BME280;53926;47.406;19.188;2022-10-16T05:30:37;100999.69;;;7.36;100.00
67013;BME280;53926;47.406;19.188;2022-10-16T05:33:03;101008.44;;;7.43;100.00
67013;BME280;53926;47.406;19.188;2022-10-16T05:35:30;101016.44;;;7.56;100.00
67013;BME280;53926;47.406;19.188;2022-10-16T05:37:57;101005.06;;;7.65;100.00
67013;BME280;53926;47.406;19.188;2022-10-16T05:40:23;101012.75;;;7.82;100.00
67013;BME280;53926;47.406;19.188;2022-10-16T05:42:54;101017.22;;;7.96;100.00
67013;BME280;53926;47.406;19.188;2022-10-16T05:45:21;101024.88;;;8.13;100.00
67013;BME280;53926;47.406;19.188;2022-10-16T05:47:47;101031.84;;;8.35;100.00
67013;BME280;53926;47.406;19.188;2022-10-16T05:50:14;101032.09;;;8.49;100.00
67013;BME280;53926;47.406;19.188;2022-10-16T05:52:41;101032.63;;;8.59;100.00
67013;BME280;53926;47.406;19.188;2022-10-16T05:55:07;101031.44;;;8.85;100.00
67013;BME280;53926;47.406;19.188;2022-10-16T05:57:34;101033.03;;;9.01;100.00
67013;BME280;53926;47.406;19.188;2022-10-16T06:00:01;101030.47;;;9.16;100.00
67013;BME280;53926;47.406;19.188;2022-10-16T06:02:27;101037.00;;;9.26;100.00
67013;BME280;53926;47.406;19.188;2022-10-16T06:04:54;101038.31;;;9.37;100.00
67013;BME280;53926;47.406;19.188;2022-10-16T06:07:21;101041.81;;;9.44;100.00
67013;BME280;53926;47.406;19.188;2022-10-16T06:09:52;101039.12;;;9.53;100.00
67013;BME280;53926;47.406;19.188;2022-10-16T06:12:19;101041.69;;;9.68;100.00
67013;BME280;53926;47.406;19.188;2022-10-16T06:14:46;101044.59;;;9.79;100.00
67013;BME280;53926;47.406;19.188;2022-10-16T06:17:14;101054.91;;;9.88;100.00
67013;BME280;53926;47.406;19.188;2022-10-16T06:19:41;101056.03;;;10.00;100.00
67013;BME280;53926;47.406;19.188;2022-10-16T06:22:08;101057.41;;;10.17;100.00
67013;BME280;53926;47.406;19.188;2022-10-16T06:24:34;101062.25;;;10.20;100.00
67013;BME280;53926;47.406;19.188;2022-10-16T06:27:03;101058.41;;;10.38;100.00
67013;BME280;53926;47.406;19.188;2022-10-16T06:29:30;101064.37;;;10.53;100.00
67013;BME280;53926;47.406;19.188;2022-10-16T06:31:57;101059.81;;;10.62;100.00
67013;BME280;53926;47.406;19.188;2022-10-16T06:34:23;101062.16;;;10.79;100.00
67013;BME280;53926;47.406;19.188;2022-10-16T06:36:50;101067.47;;;10.92;100.00
67013;BME280;53926;47.406;19.188;2022-10-16T06:39:16;101068.84;;;10.95;100.00
67013;BME280;53926;47.406;19.188;2022-10-16T06:41:43;101070.56;;;11.09;100.00
67013;BME280;53926;47.406;19.188;2022-10-16T06:44:09;101075.22;;;11.14;100.00
67013;BME280;53926;47.406;19.188;2022-10-16T06:46:36;101074.88;;;11.30;100.00
67013;BME280;53926;47.406;19.188;2022-10-16T06:49:03;101086.56;;;11.41;100.00
67013;BME280;53926;47.406;19.188;2022-10-16T06:51:29;101086.81;;;11.53;100.00
67013;BME280;53926;47.406;19.188;2022-10-16T06:53:58;101097.47;;;11.58;99.52
67013;BME280;53926;47.406;19.188;2022-10-16T06:56:31;101094.09;;;11.64;98.93
67013;BME280;53926;47.406;19.188;2022-10-16T06:58:58;101100.75;;;11.73;98.49
67013;BME280;53926;47.406;19.188;2022-10-16T07:01:25;101105.63;;;11.83;96.15
67013;BME280;53926;47.406;19.188;2022-10-16T07:03:52;101099.47;;;11.97;96.98
67013;BME280;53926;47.406;19.188;2022-10-16T07:06:21;101104.28;;;12.07;96.30
67013;BME280;53926;47.406;19.188;2022-10-16T07:08:48;101114.97;;;12.19;93.61
67013;BME280;53926;47.406;19.188;2022-10-16T07:11:18;101118.34;;;11.99;93.97
67013;BME280;53926;47.406;19.188;2022-10-16T07:13:46;101119.62;;;12.44;92.92
67013;BME280;53926;47.406;19.188;2022-10-16T07:16:21;101132.72;;;12.64;91.40
67013;BME280;53926;47.406;19.188;2022-10-16T07:18:48;101122.28;;;12.77;92.31
67013;BME280;53926;47.406;19.188;2022-10-16T07:21:17;101121.44;;;12.77;91.34
67013;BME280;53926;47.406;19.188;2022-10-16T07:23:50;101123.84;;;12.78;89.12
67013;BME280;53926;47.406;19.188;2022-10-16T07:26:16;101121.03;;;13.06;90.09
67013;BME280;53926;47.406;19.188;2022-10-16T07:28:44;101118.19;;;13.28;88.08
67013;BME280;53926;47.406;19.188;2022-10-16T07:31:13;101122.81;;;13.26;85.32
67013;BME280;53926;47.406;19.188;2022-10-16T07:33:41;101130.84;;;13.31;87.05
67013;BME280;53926;47.406;19.188;2022-10-16T07:36:13;101132.03;;;13.49;85.71
67013;BME280;53926;47.406;19.188;2022-10-16T07:38:42;101135.59;;;13.68;84.83
67013;BME280;53926;47.406;19.188;2022-10-16T07:41:11;101142.13;;;13.90;85.34
67013;BME280;53926;47.406;19.188;2022-10-16T07:43:39;101142.72;;;13.99;82.37
67013;BME280;53926;47.406;19.188;2022-10-16T07:46:05;101154.69;;;14.20;83.60
67013;BME280;53926;47.406;19.188;2022-10-16T07:48:34;101161.53;;;14.53;81.51
67013;BME280;53926;47.406;19.188;2022-10-16T07:51:03;101169.00;;;14.18;79.73
67013;BME280;53926;47.406;19.188;2022-10-16T07:53:31;101165.78;;;14.54;81.90
67013;BME280;53926;47.406;19.188;2022-10-16T07:55:58;101168.97;;;14.56;79.30
67013;BME280;53926;47.406;19.188;2022-10-16T07:58:26;101173.63;;;14.61;80.37
67013;BME280;53926;47.406;19.188;2022-10-16T08:00:54;101178.50;;;14.82;79.53
67013;BME280;53926;47.406;19.188;2022-10-16T08:03:22;101189.87;;;15.20;78.25
67013;BME280;53926;47.406;19.188;2022-10-16T08:05:58;101189.56;;;15.10;76.69
67013;BME280;53926;47.406;19.188;2022-10-16T08:08:25;101193.09;;;15.22;76.41
67013;BME280;53926;47.406;19.188;2022-10-16T08:10:53;101184.69;;;15.13;75.62
67013;BME280;53926;47.406;19.188;2022-10-16T08:13:19;101184.62;;;15.20;76.55
67013;BME280;53926;47.406;19.188;2022-10-16T08:15:47;101189.66;;;15.40;75.41
67013;BME280;53926;47.406;19.188;2022-10-16T08:18:14;101182.53;;;15.66;74.23
67013;BME280;53926;47.406;19.188;2022-10-16T08:20:42;101182.78;;;15.83;73.48
67013;BME280;53926;47.406;19.188;2022-10-16T08:23:11;101184.38;;;15.47;75.75
67013;BME280;53926;47.406;19.188;2022-10-16T08:25:37;101176.56;;;15.59;74.14
67013;BME280;53926;47.406;19.188;2022-10-16T08:28:05;101183.94;;;15.50;75.20
67013;BME280;53926;47.406;19.188;2022-10-16T08:30:32;101178.09;;;16.03;74.31
67013;BME280;53926;47.406;19.188;2022-10-16T08:32:59;101188.22;;;16.00;73.54
67013;BME280;53926;47.406;19.188;2022-10-16T08:35:25;101188.81;;;16.74;72.21
67013;BME280;53926;47.406;19.188;2022-10-16T08:37:52;101196.25;;;16.35;69.62
67013;BME280;53926;47.406;19.188;2022-10-16T08:40:27;101189.50;;;16.81;70.23
67013;BME280;53926;47.406;19.188;2022-10-16T08:43:02;101195.38;;;16.95;68.80
67013;BME280;53926;47.406;19.188;2022-10-16T08:51:01;101203.19;;;17.02;67.45
67013;BME280;53926;47.406;19.188;2022-10-16T08:53:36;101207.53;;;16.54;69.02
67013;BME280;53926;47.406;19.188;2022-10-16T08:56:08;101207.72;;;16.95;68.29
67013;BME280;53926;47.406;19.188;2022-10-16T08:58:34;101206.03;;;17.24;68.69
67013;BME280;53926;47.406;19.188;2022-10-16T09:01:35;101210.09;;;17.67;69.30
67013;BME280;53926;47.406;19.188;2022-10-16T09:16:46;101212.94;;;17.78;65.09
67013;BME280;53926;47.406;19.188;2022-10-16T09:19:24;101217.06;;;18.43;65.15
67013;BME280;53926;47.406;19.188;2022-10-16T09:21:55;101202.56;;;18.57;62.75
67013;BME280;53926;47.406;19.188;2022-10-16T09:24:25;101210.66;;;18.85;61.34
67013;BME280;53926;47.406;19.188;2022-10-16T09:26:54;101220.66;;;19.00;60.70
67013;BME280;53926;47.406;19.188;2022-10-16T09:29:21;101220.72;;;19.05;60.78
67013;BME280;53926;47.406;19.188;2022-10-16T09:31:52;101219.91;;;18.70;61.79
67013;BME280;53926;47.406;19.188;2022-10-16T09:34:36;101216.56;;;19.09;59.86
67013;BME280;53926;47.406;19.188;2022-10-16T09:37:09;101208.91;;;19.07;59.87
67013;BME280;53926;47.406;19.188;2022-10-16T09:39:46;101210.47;;;19.25;62.21
67013;BME280;53926;47.406;19.188;2022-10-16T09:42:20;101207.72;;;19.37;59.54
67013;BME280;53926;47.406;19.188;2022-10-16T09:44:49;101208.16;;;19.51;58.30
67013;BME280;53926;47.406;19.188;2022-10-16T09:49:55;101205.09;;;20.31;57.91
67013;BME280;53926;47.406;19.188;2022-10-16T09:52:24;101202.47;;;20.31;57.98
67013;BME280;53926;47.406;19.188;2022-10-16T09:57:24;101210.56;;;21.16;55.52
67013;BME280;53926;47.406;19.188;2022-10-16T09:59:53;101207.50;;;21.45;54.11
67013;BME280;53926;47.406;19.188;2022-10-16T10:02:29;101211.97;;;21.87;50.87
67013;BME280;53926;47.406;19.188;2022-10-16T10:04:57;101216.00;;;22.10;51.17
67013;BME280;53926;47.406;19.188;2022-10-16T10:07:26;101207.22;;;23.18;49.70
67013;BME280;53926;47.406;19.188;2022-10-16T10:09:56;101214.13;;;22.16;50.69
67013;BME280;53926;47.406;19.188;2022-10-16T10:12:25;101215.66;;;23.46;47.81
67013;BME280;53926;47.406;19.188;2022-10-16T10:14:57;101211.00;;;22.76;46.59
67013;BME280;53926;47.406;19.188;2022-10-16T10:17:26;101213.34;;;22.98;47.08
67013;BME280;53926;47.406;19.188;2022-10-16T10:19:56;101216.53;;;24.70;44.63
67013;BME280;53926;47.406;19.188;2022-10-16T10:22:30;101220.72;;;24.76;45.44
67013;BME280;53926;47.406;19.188;2022-10-16T10:30:24;101207.94;;;23.44;45.64
67013;BME280;53926;47.406;19.188;2022-10-16T10:35:47;101194.81;;;22.88;47.02
67013;BME280;53926;47.406;19.188;2022-10-16T10:46:56;101193.44;;;24.90;46.31
67013;BME280;53926;47.406;19.188;2022-10-16T10:57:37;101193.41;;;23.91;46.58
67013;BME280;53926;47.406;19.188;2022-10-16T11:05:42;101184.38;;;24.91;43.02
67013;BME280;53926;47.406;19.188;2022-10-16T11:08:21;101181.03;;;25.28;42.17
67013;BME280;53926;47.406;19.188;2022-10-16T11:11:20;101187.28;;;24.65;41.83
67013;BME280;53926;47.406;19.188;2022-10-16T11:13:59;101178.94;;;25.87;41.09
67013;BME280;53926;47.406;19.188;2022-10-16T11:16:38;101173.94;;;26.99;37.79
67013;BME280;53926;47.406;19.188;2022-10-16T11:19:39;101174.59;;;27.82;37.23
67013;BME280;53926;47.406;19.188;2022-10-16T11:27:39;101178.12;;;27.92;33.92
67013;BME280;53926;47.406;19.188;2022-10-16T11:30:30;101182.25;;;27.25;36.57
67013;BME280;53926;47.406;19.188;2022-10-16T11:35:39;101163.72;;;28.78;32.86
67013;BME280;53926;47.406;19.188;2022-10-16T11:38:14;101163.47;;;28.97;33.42
67013;BME280;53926;47.406;19.188;2022-10-16T11:40:45;101155.28;;;29.02;33.45
67013;BME280;53926;47.406;19.188;2022-10-16T11:43:38;101167.00;;;28.44;33.04
67013;BME280;53926;47.406;19.188;2022-10-16T11:46:18;101169.16;;;27.51;34.22
67013;BME280;53926;47.406;19.188;2022-10-16T11:48:50;101162.34;;;26.42;35.75
67013;BME280;53926;47.406;19.188;2022-10-16T11:56:55;101157.09;;;27.12;35.97
67013;BME280;53926;47.406;19.188;2022-10-16T11:59:33;101153.53;;;27.03;36.02
67013;BME280;53926;47.406;19.188;2022-10-16T12:10:34;101161.28;;;26.44;37.76
67013;BME280;53926;47.406;19.188;2022-10-16T12:18:42;101156.13;;;25.95;37.34
67013;BME280;53926;47.406;19.188;2022-10-16T12:21:11;101149.59;;;26.07;36.51
67013;BME280;53926;47.406;19.188;2022-10-16T12:23:49;101158.03;;;25.57;37.32
67013;BME280;53926;47.406;19.188;2022-10-16T12:26:27;101154.22;;;24.71;39.13
67013;BME280;53926;47.406;19.188;2022-10-16T12:28:56;101151.47;;;24.76;40.72
67013;BME280;53926;47.406;19.188;2022-10-16T12:31:44;101147.72;;;25.26;37.37
67013;BME280;53926;47.406;19.188;2022-10-16T12:34:39;101147.09;;;24.91;41.83
67013;BME280;53926;47.406;19.188;2022-10-16T12:39:39;101134.81;;;25.76;38.12
67013;BME280;53926;47.406;19.188;2022-10-16T12:44:54;101132.56;;;25.64;37.68
67013;BME280;53926;47.406;19.188;2022-10-16T12:47:38;101141.87;;;26.05;37.61
67013;BME280;53926;47.406;19.188;2022-10-16T12:50:24;101128.69;;;25.13;39.14
67013;BME280;53926;47.406;19.188;2022-10-16T12:52:52;101130.59;;;24.65;42.12
67013;BME280;53926;47.406;19.188;2022-10-16T12:55:21;101131.34;;;25.57;39.46
67013;BME280;53926;47.406;19.188;2022-10-16T12:58:08;101141.47;;;24.92;39.13
67013;BME280;53926;47.406;19.188;2022-10-16T13:27:54;101147.12;;;25.72;36.31
67013;BME280;53926;47.406;19.188;2022-10-16T13:30:25;101153.75;;;25.94;35.88
67013;BME280;53926;47.406;19.188;2022-10-16T13:33:35;101148.87;;;25.82;36.73
67013;BME280;53926;47.406;19.188;2022-10-16T13:36:03;101150.28;;;25.12;37.24
67013;BME280;53926;47.406;19.188;2022-10-16T13:38:32;101145.56;;;25.52;39.00
67013;BME280;53926;47.406;19.188;2022-10-16T13:41:05;101144.91;;;25.98;38.21
67013;BME280;53926;47.406;19.188;2022-10-16T13:46:06;101163.28;;;25.81;36.98
67013;BME280;53926;47.406;19.188;2022-10-16T13:48:36;101156.44;;;25.12;37.20
67013;BME280;53926;47.406;19.188;2022-10-16T13:51:22;101162.37;;;24.51;38.21
67013;BME280;53926;47.406;19.188;2022-10-16T13:53:58;101170.62;;;24.49;39.50
67013;BME280;53926;47.406;19.188;2022-10-16T13:56:28;101169.31;;;25.05;38.50
67013;BME280;53926;47.406;19.188;2022-10-16T13:59:03;101163.63;;;24.24;39.29
67013;BME280;53926;47.406;19.188;2022-10-16T14:01:39;101176.59;;;23.96;38.99
67013;BME280;53926;47.406;19.188;2022-10-16T14:04:09;101173.59;;;24.42;39.94
67013;BME280;53926;47.406;19.188;2022-10-16T14:06:40;101172.56;;;24.04;39.32
67013;BME280;53926;47.406;19.188;2022-10-16T14:09:18;101175.38;;;23.02;40.55
67013;BME280;53926;47.406;19.188;2022-10-16T14:12:10;101173.03;;;22.29;43.46
67013;BME280;53926;47.406;19.188;2022-10-16T14:14:46;101170.84;;;21.90;44.34
67013;BME280;53926;47.406;19.188;2022-10-16T14:17:19;101169.66;;;21.50;46.23
67013;BME280;53926;47.406;19.188;2022-10-16T14:19:47;101160.19;;;21.06;47.14
67013;BME280;53926;47.406;19.188;2022-10-16T14:24:48;101169.50;;;20.44;48.47
67013;BME280;53926;47.406;19.188;2022-10-16T14:27:33;101168.59;;;20.28;49.06
67013;BME280;53926;47.406;19.188;2022-10-16T14:30:21;101170.59;;;20.15;47.96
67013;BME280;53926;47.406;19.188;2022-10-16T14:33:03;101166.19;;;19.99;50.40
67013;BME280;53926;47.406;19.188;2022-10-16T14:35:36;101160.84;;;19.94;52.48
67013;BME280;53926;47.406;19.188;2022-10-16T14:38:05;101172.78;;;19.74;51.62
67013;BME280;53926;47.406;19.188;2022-10-16T14:40:36;101171.59;;;19.65;53.00
67013;BME280;53926;47.406;19.188;2022-10-16T14:43:04;101168.97;;;19.65;53.82
67013;BME280;53926;47.406;19.188;2022-10-16T14:45:34;101174.06;;;19.50;54.77
67013;BME280;53926;47.406;19.188;2022-10-16T14:48:02;101169.66;;;19.33;55.79
67013;BME280;53926;47.406;19.188;2022-10-16T14:50:31;101166.38;;;19.26;55.84
67013;BME280;53926;47.406;19.188;2022-10-16T14:52:58;101174.66;;;19.12;54.23
67013;BME280;53926;47.406;19.188;2022-10-16T14:55:25;101169.25;;;19.02;56.60
67013;BME280;53926;47.406;19.188;2022-10-16T14:57:52;101167.72;;;18.89;55.36
67013;BME280;53926;47.406;19.188;2022-10-16T15:00:25;101177.88;;;18.81;57.01
67013;BME280;53926;47.406;19.188;2022-10-16T15:02:52;101175.38;;;18.74;59.18
67013;BME280;53926;47.406;19.188;2022-10-16T15:05:24;101180.88;;;18.72;56.30
67013;BME280;53926;47.406;19.188;2022-10-16T15:07:53;101170.34;;;18.55;59.83